B9507 ZUGH-ZUGH

Flight info

Callsign B9507
Flight time 0h 9m
Altitude 1000
Route LOCAL
Aircraft DA40/L-V/N

Departure

Time 2026-05-05 06:21
Airport Guanghan Airport (ZUGH)

Arrival

Time 2026-05-05 06:30
Airport Guanghan Airport (ZUGH)
Time Latitude Longitude Altitude Speed Heading
2026-05-05 06:13 30.94873 104.32532 1540 ft 0 kts 36°
2026-05-05 06:19 30.94896 104.32549 1540 ft 3 kts 341°
2026-05-05 06:19 30.94911 104.32524 1537 ft 9 kts 305°
2026-05-05 06:20 30.94984 104.32415 1538 ft 17 kts 332°
2026-05-05 06:20 30.95067 104.32433 1544 ft 12 kts 38°
2026-05-05 06:20 30.95129 104.32506 1545 ft 10 kts 85°
2026-05-05 06:20 30.95086 104.32590 1541 ft 28 kts 123°
2026-05-05 06:21 30.94875 104.32918 1539 ft 70 kts 124°
2026-05-05 06:21 30.94581 104.33415 1684 ft 75 kts 126°
2026-05-05 06:21 30.94263 104.33915 1878 ft 77 kts 127°
2026-05-05 06:21 30.93959 104.34413 2152 ft 73 kts 126°
2026-05-05 06:22 30.93940 104.34984 2321 ft 81 kts 58°
2026-05-05 06:22 30.94413 104.35391 2568 ft 89 kts 39°
2026-05-05 06:22 30.94969 104.35855 2737 ft 104 kts 38°
2026-05-05 06:22 30.95674 104.36058 2813 ft 110 kts 344°
2026-05-05 06:23 30.96234 104.35524 2840 ft 107 kts 302°
2026-05-05 06:23 30.96697 104.34807 2842 ft 113 kts 307°
2026-05-05 06:23 30.97169 104.34081 2904 ft 113 kts 306°
2026-05-05 06:23 30.97601 104.33370 2971 ft 94 kts 300°
2026-05-05 06:24 30.97990 104.32740 2936 ft 94 kts 298°
2026-05-05 06:24 30.98321 104.32074 2904 ft 94 kts 287°
2026-05-05 06:24 30.98280 104.31334 2755 ft 94 kts 238°
2026-05-05 06:24 30.97827 104.30848 2694 ft 84 kts 207°
2026-05-05 06:25 30.97345 104.30532 2497 ft 84 kts 206°
2026-05-05 06:25 30.96807 104.30297 2300 ft 83 kts 177°
2026-05-05 06:25 30.96340 104.30652 2083 ft 85 kts 134°
2026-05-05 06:25 30.95971 104.31188 1900 ft 85 kts 127°
2026-05-05 06:26 30.95625 104.31742 1679 ft 83 kts 131°
2026-05-05 06:26 30.95296 104.32257 1549 ft 69 kts 129°
2026-05-05 06:26 30.95060 104.32634 1541 ft 60 kts 125°
2026-05-05 06:26 30.94776 104.33089 1589 ft 74 kts 128°
2026-05-05 06:27 30.94469 104.33585 1730 ft 70 kts 130°
2026-05-05 06:27 30.93872 104.34514 1982 ft 80 kts 97°
2026-05-05 06:27 30.94179 104.35041 2125 ft 86 kts 33°
2026-05-05 06:28 30.94690 104.35385 2357 ft 86 kts 31°
2026-05-05 06:28 30.95251 104.35693 2575 ft 102 kts
2026-05-05 06:28 30.95998 104.35465 2598 ft 122 kts 320°
2026-05-05 06:28 30.96475 104.34678 2742 ft 117 kts 299°
2026-05-05 06:29 30.97023 104.33906 2746 ft 121 kts 310°
2026-05-05 06:29 30.97395 104.33245 2844 ft 84 kts 278°
2026-05-05 06:29 30.97266 104.32622 2715 ft 79 kts 223°
2026-05-05 06:29 30.96823 104.32230 2607 ft 80 kts 209°
2026-05-05 06:30 30.96352 104.31907 2229 ft 80 kts 202°
2026-05-05 06:30 30.95800 104.31857 1805 ft 86 kts 175°
2026-05-05 06:30 30.95327 104.32211 1564 ft 73 kts 129°
2026-05-05 06:30 30.95084 104.32594 1542 ft 48 kts 128°
2026-05-05 06:31 30.94968 104.32767 1541 ft 18 kts 123°
2026-05-05 06:31 30.94868 104.32902 1540 ft 23 kts 141°
2026-05-05 06:31 30.94784 104.32903 1544 ft 25 kts 213°
2026-05-05 06:31 30.94700 104.32833 1538 ft 8 kts 203°
2026-05-05 06:32 30.94662 104.32835 1541 ft 11 kts 127°
2026-05-05 06:32 30.94642 104.32864 1542 ft 0 kts 127°
2026-05-05 06:38 30.94586 104.32949 1539 ft 19 kts 128°
2026-05-05 06:38 30.94580 104.32995 1540 ft 6 kts 14°
2026-05-05 06:38 30.94646 104.32943 1543 ft 16 kts 314°
2026-05-05 06:39 30.94735 104.32852 1542 ft 16 kts 53°
2026-05-05 06:39 30.94800 104.32917 1543 ft 20 kts 34°
2026-05-05 06:39 30.94817 104.32990 1545 ft 11 kts 127°
2026-05-05 06:39 30.94791 104.33029 1545 ft 0 kts 125°
2026-05-05 06:40 30.94750 104.33116 1544 ft 24 kts 116°
2026-05-05 06:40 30.94721 104.33170 1545 ft 14 kts 126°
2026-05-05 06:40 30.94643 104.33292 1544 ft 42 kts 126°
2026-05-05 06:41 30.94294 104.33855 1573 ft 77 kts 128°
2026-05-05 06:41 30.93965 104.34378 1682 ft 82 kts 128°
2026-05-05 06:41 30.93631 104.34895 1875 ft 78 kts 130°
2026-05-05 06:41 30.93307 104.35398 2130 ft 76 kts 113°
2026-05-05 06:42 30.93436 104.35975 2286 ft 84 kts 43°
2026-05-05 06:42 30.93959 104.36343 2435 ft 92 kts 33°
2026-05-05 06:42 30.94580 104.36656 2477 ft 108 kts
2026-05-05 06:42 30.95086 104.36566 2465 ft 116 kts 332°
2026-05-05 06:43 30.95742 104.35640 2559 ft 117 kts 301°
2026-05-05 06:43 30.96211 104.34822 2607 ft 124 kts 300°
2026-05-05 06:43 30.96692 104.33977 2690 ft 125 kts 303°
2026-05-05 06:43 30.97216 104.33160 2616 ft 126 kts 307°
2026-05-05 06:44 30.97762 104.32401 2627 ft 122 kts 307°
2026-05-05 06:44 30.98297 104.31653 2631 ft 115 kts 303°
2026-05-05 06:44 30.98552 104.30921 2677 ft 85 kts 257°
2026-05-05 06:44 30.98204 104.30468 2577 ft 74 kts 189°
2026-05-05 06:45 30.97690 104.30620 2369 ft 82 kts 158°
2026-05-05 06:45 30.97177 104.30867 2296 ft 78 kts 161°
2026-05-05 06:45 30.96644 104.31075 2140 ft 82 kts 161°
2026-05-05 06:45 30.96127 104.31356 1974 ft 83 kts 155°
2026-05-05 06:46 30.95787 104.31588 1798 ft 87 kts 147°
2026-05-05 06:46 30.95398 104.32095 1561 ft 78 kts 128°
2026-05-05 06:46 30.95068 104.32614 1541 ft 46 kts 124°
2026-05-05 06:46 30.94959 104.32789 1541 ft 32 kts 122°
2026-05-05 06:47 30.94891 104.32906 1543 ft 9 kts 123°
2026-05-05 06:47 30.94845 104.32972 1539 ft 26 kts 125°
2026-05-05 06:47 30.94585 104.33385 1543 ft 67 kts 127°
2026-05-05 06:47 30.94280 104.33871 1581 ft 78 kts 127°
2026-05-05 06:48 30.93971 104.34353 1717 ft 73 kts 129°
2026-05-05 06:48 30.93770 104.34647 1821 ft 68 kts 127°
2026-05-05 06:48 30.93741 104.35359 1998 ft 79 kts 45°
2026-05-05 06:48 30.94045 104.35619 2075 ft 83 kts 34°
2026-05-05 06:49 30.94515 104.35959 2325 ft 79 kts 31°
2026-05-05 06:49 30.95038 104.36179 2316 ft 82 kts 347°
2026-05-05 06:49 30.95436 104.35714 2106 ft 84 kts 277°
2026-05-05 06:49 30.95298 104.35105 1968 ft 80 kts 245°
2026-05-05 06:50 30.95020 104.34550 1889 ft 77 kts 232°
2026-05-05 06:50 30.94694 104.34046 1720 ft 77 kts 234°
2026-05-05 06:50 30.94555 104.33467 1586 ft 77 kts 293°
2026-05-05 06:50 30.94818 104.33006 1543 ft 51 kts 302°
2026-05-05 06:51 30.94889 104.32888 1545 ft 0 kts 267°
2026-05-05 06:51 30.94911 104.32865 1545 ft 10 kts 38°
2026-05-05 06:51 30.94870 104.32930 1543 ft 16 kts 123°
2026-05-05 06:51 30.94730 104.33154 1548 ft 52 kts 127°
2026-05-05 06:52 30.94472 104.33567 1565 ft 69 kts 126°
2026-05-05 06:52 30.94195 104.34042 1639 ft 70 kts 123°
2026-05-05 06:52 30.93961 104.34540 1743 ft 68 kts 116°
2026-05-05 06:52 30.93776 104.35092 1851 ft 80 kts 105°
2026-05-05 06:53 30.93927 104.35697 2009 ft 88 kts 44°
2026-05-05 06:53 30.94475 104.35973 2235 ft 92 kts 15°
2026-05-05 06:53 30.95155 104.35925 2306 ft 112 kts 338°
2026-05-05 06:53 30.95763 104.35329 2419 ft 112 kts 308°
2026-05-05 06:54 30.96264 104.34618 2527 ft 120 kts 304°
2026-05-05 06:54 30.96740 104.33812 2704 ft 122 kts 303°
2026-05-05 06:54 30.97341 104.33043 2760 ft 125 kts 303°
2026-05-05 06:54 30.97701 104.32214 2930 ft 114 kts 283°
2026-05-05 06:55 30.97596 104.31349 2863 ft 103 kts 239°
2026-05-05 06:55 30.97104 104.30859 2856 ft 81 kts 205°
2026-05-05 06:55 30.96581 104.30660 2778 ft 84 kts 169°
2026-05-05 06:55 30.96090 104.31063 2635 ft 81 kts 112°
2026-05-05 06:56 30.95696 104.31649 2016 ft 96 kts 109°
2026-05-05 06:56 30.95302 104.32251 1569 ft 91 kts 133°
2026-05-05 06:56 30.95002 104.32728 1539 ft 57 kts 125°
2026-05-05 06:56 30.94747 104.33135 1566 ft 72 kts 127°
2026-05-05 06:57 30.94453 104.33626 1707 ft 74 kts 125°
2026-05-05 06:57 30.94180 104.34127 1883 ft 74 kts 121°
2026-05-05 06:57 30.94066 104.34688 2011 ft 87 kts 50°
2026-05-05 06:57 30.94625 104.34548 2026 ft 97 kts 317°
2026-05-05 06:58 30.95037 104.33958 1941 ft 96 kts 308°
2026-05-05 06:58 30.95405 104.33318 1925 ft 93 kts 298°
2026-05-05 06:58 30.95721 104.32662 1975 ft 95 kts 296°
2026-05-05 06:58 30.96004 104.31996 1929 ft 88 kts 281°
2026-05-05 06:59 30.95680 104.31673 1791 ft 78 kts 129°
2026-05-05 06:59 30.95339 104.32187 1581 ft 77 kts 129°
2026-05-05 06:59 30.95042 104.32662 1543 ft 60 kts 126°
2026-05-05 06:59 30.94819 104.33021 1546 ft 65 kts 126°
2026-05-05 07:00 30.94514 104.33502 1641 ft 76 kts 127°
2026-05-05 07:00 30.94285 104.34058 1765 ft 84 kts 88°
2026-05-05 07:00 30.94702 104.34542 1868 ft 97 kts
2026-05-05 07:00 30.95295 104.34214 2001 ft 98 kts 306°
2026-05-05 07:01 30.95717 104.33553 2081 ft 102 kts 302°
2026-05-05 07:01 30.96136 104.32877 2093 ft 101 kts 308°
2026-05-05 07:01 30.96533 104.32262 2137 ft 90 kts 286°
2026-05-05 07:01 30.96403 104.31604 2092 ft 84 kts 224°
2026-05-05 07:02 30.95864 104.31462 1901 ft 87 kts 159°
2026-05-05 07:02 30.95454 104.32006 1606 ft 86 kts 129°
2026-05-05 07:02 30.95153 104.32481 1543 ft 58 kts 125°
2026-05-05 07:02 30.95021 104.32695 1541 ft 32 kts 127°
2026-05-05 07:03 30.94860 104.32909 1542 ft 33 kts 138°
2026-05-05 07:03 30.94784 104.32904 1544 ft 18 kts 218°
2026-05-05 07:03 30.94687 104.32869 1542 ft 16 kts 167°
2026-05-05 07:03 30.94654 104.32876 1542 ft 0 kts 170°
2026-05-05 07:06 30.94655 104.32876 1542 ft 0 kts 170°
2026-05-05 07:28 30.94626 104.32890 1542 ft 10 kts 131°
2026-05-05 07:28 30.94582 104.32981 1543 ft 7 kts 46°
2026-05-05 07:28 30.94645 104.32944 1543 ft 24 kts 307°
2026-05-05 07:29 30.94744 104.32872 1544 ft 16 kts 26°
2026-05-05 07:29 30.94764 104.32885 1544 ft 0 kts 33°
2026-05-05 07:29 30.94765 104.32887 1544 ft 4 kts 33°
2026-05-05 07:29 30.94825 104.32987 1545 ft 25 kts 106°
2026-05-05 07:30 30.94779 104.33077 1545 ft 0 kts 123°
2026-05-05 07:30 30.94567 104.33412 1543 ft 65 kts 127°
2026-05-05 07:30 30.94260 104.33904 1617 ft 79 kts 126°
2026-05-05 07:31 30.93935 104.34428 1773 ft 82 kts 126°
2026-05-05 07:31 30.93612 104.34962 1982 ft 80 kts 124°
2026-05-05 07:31 30.93313 104.35511 2201 ft 80 kts 109°
2026-05-05 07:31 30.93472 104.36122 2358 ft 90 kts 43°
2026-05-05 07:32 30.94013 104.36494 2511 ft 91 kts 34°
2026-05-05 07:32 30.94594 104.36864 2439 ft 98 kts 11°
2026-05-05 07:32 30.95259 104.36701 2386 ft 95 kts 327°
2026-05-05 07:32 30.95715 104.36122 2473 ft 103 kts 304°
2026-05-05 07:33 30.96134 104.35417 2572 ft 109 kts 299°
2026-05-05 07:33 30.96574 104.34664 2697 ft 117 kts 299°
2026-05-05 07:33 30.97038 104.33856 2649 ft 122 kts 302°
2026-05-05 07:33 30.97525 104.33129 2575 ft 109 kts 305°
2026-05-05 07:34 30.97976 104.32404 2632 ft 103 kts 296°
2026-05-05 07:34 30.98038 104.31645 2615 ft 91 kts 240°
2026-05-05 07:34 30.97606 104.31172 2482 ft 84 kts 211°
2026-05-05 07:34 30.97052 104.30839 2401 ft 87 kts 201°
2026-05-05 07:35 30.96477 104.30751 2121 ft 87 kts 165°
2026-05-05 07:35 30.95987 104.31218 1843 ft 92 kts 135°
2026-05-05 07:35 30.95599 104.31784 1645 ft 89 kts 126°
2026-05-05 07:35 30.95251 104.32331 1552 ft 75 kts 126°
2026-05-05 07:36 30.94953 104.32802 1545 ft 60 kts 127°
2026-05-05 07:36 30.94699 104.33203 1552 ft 72 kts 126°
2026-05-05 07:36 30.94388 104.33716 1649 ft 81 kts 125°
2026-05-05 07:36 30.94176 104.34080 1733 ft 83 kts 124°
2026-05-05 07:37 30.93766 104.34812 1959 ft 85 kts 111°
2026-05-05 07:37 30.93848 104.35536 2067 ft 94 kts 58°
2026-05-05 07:37 30.94165 104.35906 2179 ft 97 kts 40°
2026-05-05 07:37 30.94717 104.36366 2401 ft 96 kts 36°
2026-05-05 07:38 30.95388 104.36608 2365 ft 109 kts 352°
2026-05-05 07:38 30.96001 104.36155 2437 ft 112 kts 306°
2026-05-05 07:38 30.96456 104.35410 2530 ft 110 kts 303°
2026-05-05 07:38 30.96874 104.34689 2591 ft 105 kts 296°
2026-05-05 07:39 30.97239 104.33957 2590 ft 103 kts 295°
2026-05-05 07:39 30.97424 104.33279 2586 ft 79 kts 257°
2026-05-05 07:39 30.97141 104.32746 2395 ft 78 kts 213°
2026-05-05 07:39 30.96652 104.32426 2257 ft 81 kts 199°
2026-05-05 07:40 30.96115 104.32183 1957 ft 85 kts 201°
2026-05-05 07:40 30.95536 104.32027 1608 ft 82 kts 167°
2026-05-05 07:40 30.95198 104.32412 1545 ft 56 kts 126°
2026-05-05 07:40 30.94975 104.32764 1540 ft 66 kts 127°
2026-05-05 07:41 30.94665 104.33259 1617 ft 79 kts 127°
2026-05-05 07:41 30.94356 104.33764 1729 ft 72 kts 127°
2026-05-05 07:41 30.94039 104.34233 1547 ft 67 kts 144°
2026-05-05 07:41 30.93759 104.34485 1531 ft 18 kts 146°